Time;durP1;ratioP1;P1;durP2;ratioP2;P2;SDS_P1;SDS_P2;PMS_P1;PMS_P2;Temp;Humidity;BMP_temperature;BMP_pressure;BME280_temperature;BME280_humidity;BME280_pressure;Samples;Min_cycle;Max_cycle;Signal;HPM_P1;HPM_P2
2022/03/06 00:01:44;;;;;;;2.75;1.20;;;;;;;0.09;72.33;102653.91;4991854;28;20260;-48
2022/03/06 00:04:09;;;;;;;1.55;1.27;;;;;;;0.14;71.44;102650.59;4992357;28;20309;-45
2022/03/06 00:06:35;;;;;;;3.60;1.05;;;;;;;0.18;71.47;102644.59;4974802;28;20185;-48
2022/03/06 00:09:01;;;;;;;1.35;0.75;;;;;;;0.17;71.34;102645.44;4992642;28;20176;-47
2022/03/06 00:11:27;;;;;;;1.40;1.00;;;;;;;0.23;69.98;102657.03;4992209;28;20582;-46
2022/03/06 00:13:52;;;;;;;2.17;0.90;;;;;;;0.24;69.99;102657.09;4991527;28;20639;-47
2022/03/06 00:16:17;;;;;;;2.53;0.90;;;;;;;0.17;70.50;102649.81;4974903;28;20791;-47
2022/03/06 00:18:43;;;;;;;0.93;0.90;;;;;;;0.19;69.88;102646.38;4991913;28;20192;-45
2022/03/06 00:21:11;;;;;;;1.45;1.10;;;;;;;0.19;70.05;102643.75;5007088;28;20552;-47
2022/03/06 00:23:36;;;;;;;1.55;0.90;;;;;;;0.22;69.48;102648.25;4990761;28;20169;-48
2022/03/06 00:26:02;;;;;;;1.02;0.90;;;;;;;0.22;69.53;102656.16;4991730;28;20244;-47
2022/03/06 00:28:27;;;;;;;1.85;0.85;;;;;;;0.22;68.95;102645.59;4991827;28;20300;-46
2022/03/06 00:30:52;;;;;;;2.00;1.33;;;;;;;0.21;68.92;102654.34;4991947;28;20177;-46
2022/03/06 00:33:18;;;;;;;4.15;0.93;;;;;;;0.23;68.27;102657.94;4991040;28;20191;-48
2022/03/06 00:35:43;;;;;;;3.15;0.80;;;;;;;0.24;68.01;102646.56;4991978;28;20196;-45
2022/03/06 00:38:09;;;;;;;1.33;0.80;;;;;;;0.25;68.08;102656.25;4991757;28;20538;-48
2022/03/06 00:40:34;;;;;;;1.33;0.65;;;;;;;0.24;67.88;102656.19;4974153;28;20196;-48
2022/03/06 00:42:59;;;;;;;2.47;0.82;;;;;;;0.24;66.51;102659.75;4991134;28;20240;-45
2022/03/06 00:45:25;;;;;;;0.52;0.50;;;;;;;0.24;67.11;102649.19;4991685;28;20165;-47
2022/03/06 00:47:50;;;;;;;0.82;0.50;;;;;;;0.23;66.74;102652.66;4991279;28;20173;-47
2022/03/06 00:50:16;;;;;;;0.57;0.57;;;;;;;0.24;66.99;102645.63;4991352;28;20173;-44
2022/03/06 00:52:41;;;;;;;1.00;0.90;;;;;;;0.19;66.56;102649.00;4991270;28;20256;-48
2022/03/06 00:55:08;;;;;;;0.82;0.50;;;;;;;0.24;65.55;102653.53;4991469;28;20571;-47
2022/03/06 00:57:33;;;;;;;1.80;0.50;;;;;;;0.22;66.22;102644.69;4991619;28;20192;-47
2022/03/06 00:59:59;;;;;;;2.35;0.70;;;;;;;0.20;66.20;102645.56;4991655;28;20645;-46
2022/03/06 01:02:25;;;;;;;2.25;0.68;;;;;;;0.22;65.62;102644.69;4990196;28;20220;-47
2022/03/06 01:04:50;;;;;;;2.53;1.05;;;;;;;0.28;65.73;102650.16;4974255;28;20526;-47
2022/03/06 01:07:15;;;;;;;1.77;0.80;;;;;;;0.18;65.62;102646.34;4990948;28;20177;-46
2022/03/06 01:09:41;;;;;;;2.08;0.93;;;;;;;0.22;65.78;102649.97;4991265;28;20173;-47
2022/03/06 01:12:07;;;;;;;1.30;0.50;;;;;;;0.15;65.78;102647.16;4990684;28;20186;-49
2022/03/06 01:14:32;;;;;;;6.30;0.63;;;;;;;0.20;65.33;102655.19;4991177;28;20180;-47
2022/03/06 01:16:58;;;;;;;0.85;0.60;;;;;;;0.23;66.55;102651.78;4991136;28;20172;-46
2022/03/06 01:19:23;;;;;;;0.55;0.55;;;;;;;0.21;66.87;102654.34;4990929;28;20189;-47
2022/03/06 01:21:49;;;;;;;1.88;0.77;;;;;;;0.17;66.18;102658.59;4990842;28;20209;-48
2022/03/06 01:24:14;;;;;;;1.08;0.55;;;;;;;0.19;65.54;102650.75;4991155;28;20543;-47
2022/03/06 01:26:40;;;;;;;2.63;0.80;;;;;;;0.18;65.67;102663.06;4990671;28;20170;-44
2022/03/06 01:29:05;;;;;;;1.83;0.60;;;;;;;0.17;66.15;102655.97;4991041;28;20173;-45
2022/03/06 01:31:31;;;;;;;2.13;0.70;;;;;;;0.19;65.58;102659.56;4990882;28;20197;-45
2022/03/06 01:33:56;;;;;;;0.80;0.73;;;;;;;0.20;65.52;102649.94;4990414;28;20221;-47
2022/03/06 01:36:22;;;;;;;2.00;0.85;;;;;;;0.14;66.63;102647.97;4990861;28;20166;-48
2022/03/06 01:38:47;;;;;;;1.63;0.60;;;;;;;0.22;67.31;102649.97;4972915;28;20166;-47
2022/03/06 01:41:13;;;;;;;0.85;0.60;;;;;;;0.22;66.48;102650.88;4973287;28;20213;-48
2022/03/06 01:43:38;;;;;;;2.30;0.90;;;;;;;0.17;67.05;102653.34;4990203;28;20173;-45
2022/03/06 01:46:04;;;;;;;0.80;0.80;;;;;;;0.23;66.93;102647.38;4990836;28;20186;-46
2022/03/06 01:48:29;;;;;;;1.30;0.63;;;;;;;0.25;67.24;102650.97;4990870;28;20299;-47
2022/03/06 01:50:55;;;;;;;1.85;0.85;;;;;;;0.24;67.65;102648.28;4990367;28;20205;-46
2022/03/06 01:53:20;;;;;;;1.25;0.80;;;;;;;0.21;68.02;102646.44;4990106;28;20205;-45
2022/03/06 01:55:46;;;;;;;1.05;0.70;;;;;;;0.20;68.05;102649.94;4990677;28;20790;-46
2022/03/06 01:58:12;;;;;;;1.75;1.02;;;;;;;0.23;67.37;102649.13;4990798;28;20177;-45
2022/03/06 02:00:44;;;;;;;2.95;0.60;;;;;;;0.22;67.25;102658.78;4990694;28;20177;-49
2022/03/06 02:03:11;;;;;;;1.30;0.75;;;;;;;0.25;66.65;102664.16;4989630;28;20212;-46
2022/03/06 02:05:38;;;;;;;1.73;0.60;;;;;;;0.23;67.33;102660.56;4990273;28;20188;-47
2022/03/06 02:08:05;;;;;;;1.40;0.90;;;;;;;0.24;67.31;102656.19;4990170;28;20170;-47
2022/03/06 02:10:31;;;;;;;1.38;0.75;;;;;;;0.22;67.39;102640.34;4990703;28;20185;-48
2022/03/06 02:12:58;;;;;;;0.93;0.68;;;;;;;0.27;67.06;102654.56;4990006;28;20200;-46
2022/03/06 02:15:23;;;;;;;1.80;0.80;;;;;;;0.24;67.42;102643.94;4990224;28;20282;-45
2022/03/06 02:17:49;;;;;;;2.00;0.80;;;;;;;0.17;67.41;102641.91;4990541;28;20268;-47
2022/03/06 02:20:17;;;;;;;3.20;0.90;;;;;;;0.29;66.75;102637.06;4990337;28;20892;-45
2022/03/06 02:22:45;;;;;;;1.60;0.82;;;;;;;0.29;66.01;102639.69;4989303;28;20209;-47
2022/03/06 02:25:34;;;;;;;1.25;0.73;;;;;;;0.23;66.23;102639.47;4990384;28;20186;-45
2022/03/06 02:28:03;;;;;;;0.80;0.55;;;;;;;0.27;66.00;102632.59;4989934;28;20173;-44
2022/03/06 02:30:31;;;;;;;2.50;0.90;;;;;;;0.23;66.31;102628.94;4990595;28;20186;-46
2022/03/06 02:32:59;;;;;;;3.35;1.27;;;;;;;0.23;66.37;102626.31;4955400;28;20566;-45
2022/03/06 02:35:25;;;;;;;2.20;0.95;;;;;;;0.20;66.85;102637.63;4967689;28;20663;-45
2022/03/06 02:37:50;;;;;;;1.48;1.00;;;;;;;0.26;67.17;102628.13;4970669;28;20541;-45
2022/03/06 02:40:18;;;;;;;1.77;1.10;;;;;;;0.23;68.19;102618.38;4970554;28;20210;-46
2022/03/06 02:42:45;;;;;;;3.72;0.88;;;;;;;0.19;69.20;102625.28;4976563;28;20239;-48
2022/03/06 02:45:14;;;;;;;1.33;0.80;;;;;;;0.13;69.32;102617.19;4986895;28;20715;-44
2022/03/06 02:47:40;;;;;;;1.38;1.05;;;;;;;0.11;68.95;102620.59;4992443;28;20252;-46
2022/03/06 02:50:09;;;;;;;1.00;0.88;;;;;;;-0.07;70.44;102615.63;4993718;28;20169;-47
2022/03/06 02:52:35;;;;;;;2.35;0.80;;;;;;;-0.07;70.97;102610.34;4993287;28;20231;-44
2022/03/06 02:55:00;;;;;;;1.98;1.20;;;;;;;0.07;71.06;102613.47;4993796;28;20166;-48
2022/03/06 02:57:26;;;;;;;1.83;0.60;;;;;;;0.04;71.24;102618.63;4993672;28;20224;-46
2022/03/06 02:59:51;;;;;;;1.00;0.60;;;;;;;-0.03;70.82;102615.75;4993997;28;20178;-46
2022/03/06 03:02:16;;;;;;;1.80;1.00;;;;;;;-0.01;71.58;102611.44;4992623;28;20193;-46
2022/03/06 03:04:42;;;;;;;1.52;0.75;;;;;;;0.00;71.68;102607.09;4993281;28;20209;-47
2022/03/06 03:07:07;;;;;;;1.30;1.15;;;;;;;-0.15;72.73;102610.09;5008676;28;20549;-44
2022/03/06 03:09:34;;;;;;;1.00;0.63;;;;;;;-0.09;73.93;102620.84;4975446;28;20196;-45
2022/03/06 03:11:59;;;;;;;1.40;1.30;;;;;;;-0.11;73.83;102614.63;4992582;28;20599;-47
2022/03/06 03:14:25;;;;;;;2.13;1.05;;;;;;;-0.25;74.09;102621.16;4993324;28;20184;-47
2022/03/06 03:16:51;;;;;;;3.03;1.27;;;;;;;-0.23;74.49;102614.19;4993054;28;20641;-47
2022/03/06 03:19:17;;;;;;;2.63;0.80;;;;;;;-0.19;74.24;102621.38;4993326;28;20598;-47
2022/03/06 03:21:44;;;;;;;1.25;1.15;;;;;;;-0.14;75.03;102622.41;4975036;28;20201;-47
2022/03/06 03:24:09;;;;;;;1.27;1.00;;;;;;;-0.17;74.84;102622.31;4993634;28;20276;-46
2022/03/06 03:26:34;;;;;;;1.05;1.00;;;;;;;-0.16;75.05;102616.19;4993639;28;20261;-45
2022/03/06 03:29:00;;;;;;;1.27;0.88;;;;;;;-0.25;75.09;102615.88;4993013;28;20217;-46
2022/03/06 03:31:25;;;;;;;3.70;0.85;;;;;;;-0.14;75.28;102613.63;4991928;28;20162;-45
2022/03/06 03:33:51;;;;;;;2.45;0.90;;;;;;;-0.22;75.39;102613.34;4992334;28;20633;-47
2022/03/06 03:36:16;;;;;;;1.25;0.70;;;;;;;-0.12;75.54;102615.47;4975583;28;20543;-45
2022/03/06 03:38:42;;;;;;;0.60;0.60;;;;;;;-0.03;76.51;102617.50;4975519;28;20236;-45
2022/03/06 03:41:08;;;;;;;1.33;0.70;;;;;;;0.00;75.96;102620.28;4992575;28;20272;-45
2022/03/06 03:43:34;;;;;;;2.30;0.80;;;;;;;-0.01;75.89;102627.25;4992681;28;20613;-45
2022/03/06 03:46:00;;;;;;;2.30;0.90;;;;;;;0.02;76.13;102620.31;4992872;28;20182;-47
2022/03/06 03:48:27;;;;;;;1.48;0.93;;;;;;;-0.06;76.81;102627.97;4992561;28;20265;-46
2022/03/06 03:50:53;;;;;;;1.15;0.80;;;;;;;-0.05;76.13;102625.34;4992613;28;20243;-47
2022/03/06 03:53:19;;;;;;;1.33;0.80;;;;;;;-0.09;76.56;102635.75;4991932;28;20239;-47
2022/03/06 03:55:45;;;;;;;1.73;0.70;;;;;;;-0.07;77.14;102636.69;4992979;28;20606;-44
2022/03/06 03:58:10;;;;;;;1.83;0.73;;;;;;;-0.06;77.37;102634.13;4991214;28;20850;-45
2022/03/06 04:00:36;;;;;;;1.83;0.82;;;;;;;0.04;77.35;102629.16;4992721;28;20260;-46
2022/03/06 04:03:01;;;;;;;1.13;1.08;;;;;;;0.11;76.76;102628.50;4991670;28;20223;-44
2022/03/06 04:05:27;;;;;;;2.25;0.80;;;;;;;0.09;76.27;102633.75;4992175;28;20220;-47
2022/03/06 04:07:53;;;;;;;0.88;0.88;;;;;;;0.15;75.83;102639.25;4992365;28;20161;-46
2022/03/06 04:10:19;;;;;;;2.92;1.40;;;;;;;0.12;75.52;102631.22;4992603;28;20193;-46
2022/03/06 04:12:44;;;;;;;2.78;2.47;;;;;;;0.10;75.10;102626.72;5006687;28;20189;-46
2022/03/06 04:15:09;;;;;;;2.50;1.60;;;;;;;-0.01;74.91;102636.91;4992486;28;20214;-44
2022/03/06 04:17:35;;;;;;;2.45;1.67;;;;;;;-0.04;75.68;102624.53;5007109;28;20174;-46
2022/03/06 04:20:01;;;;;;;3.42;1.50;;;;;;;-0.07;75.44;102632.31;4992223;28;20174;-45
2022/03/06 04:22:27;;;;;;;3.22;1.63;;;;;;;-0.09;75.99;102628.75;4991751;28;20635;-44
2022/03/06 04:24:52;;;;;;;2.00;1.27;;;;;;;-0.13;75.98;102620.66;4974612;28;20165;-44
2022/03/06 04:27:18;;;;;;;2.40;1.50;;;;;;;-0.08;76.33;102627.00;4992346;28;20224;-44
2022/03/06 04:29:43;;;;;;;2.40;1.58;;;;;;;-0.06;76.51;102630.59;4991779;28;20165;-45
2022/03/06 04:32:08;;;;;;;3.00;1.40;;;;;;;-0.04;76.85;102632.44;4990982;28;20196;-44
2022/03/06 04:34:34;;;;;;;2.15;0.85;;;;;;;-0.26;77.21;102622.00;4991836;28;20165;-46
2022/03/06 04:36:59;;;;;;;1.13;0.63;;;;;;;-0.42;77.94;102634.63;4986120;28;20284;-44
2022/03/06 04:39:24;;;;;;;1.58;1.10;;;;;;;-0.42;78.47;102612.63;4970649;28;20222;-44
2022/03/06 04:41:50;;;;;;;2.15;1.00;;;;;;;-0.37;77.77;102632.16;4991322;28;20209;-47
2022/03/06 04:44:15;;;;;;;0.95;0.80;;;;;;;-0.42;78.03;102629.38;4991495;28;20641;-44
2022/03/06 04:46:40;;;;;;;2.03;0.90;;;;;;;-0.34;78.96;102636.63;4991631;28;20185;-46
2022/03/06 04:49:06;;;;;;;2.97;1.00;;;;;;;-0.30;78.57;102644.69;4991483;28;20252;-47
2022/03/06 04:51:31;;;;;;;2.03;0.70;;;;;;;-0.27;79.05;102638.63;4995331;28;20208;-44
2022/03/06 04:53:57;;;;;;;2.67;1.08;;;;;;;-0.42;79.79;102639.91;5006711;28;20531;-47
2022/03/06 04:56:24;;;;;;;2.22;0.95;;;;;;;-0.56;80.19;102650.75;4991001;28;20181;-46
2022/03/06 04:58:50;;;;;;;3.25;1.25;;;;;;;-0.42;79.77;102641.59;4991829;28;20196;-45
2022/03/06 05:01:15;;;;;;;1.45;1.20;;;;;;;-0.26;79.26;102643.06;5005967;28;20185;-44
2022/03/06 05:03:40;;;;;;;3.35;1.20;;;;;;;-0.19;78.19;102637.16;4990729;28;20181;-45
2022/03/06 05:06:06;;;;;;;1.95;1.23;;;;;;;-0.11;77.70;102638.34;4991176;28;20181;-45
2022/03/06 05:08:31;;;;;;;2.80;1.10;;;;;;;-0.13;78.22;102636.47;4991414;28;20837;-49
2022/03/06 05:10:57;;;;;;;1.60;1.42;;;;;;;-0.01;77.28;102645.69;4991359;28;20608;-47
2022/03/06 05:13:23;;;;;;;1.20;1.10;;;;;;;0.03;77.12;102646.72;4990787;28;20552;-47
2022/03/06 05:15:49;;;;;;;3.08;1.60;;;;;;;-0.01;76.93;102645.69;4990936;28;20173;-48
2022/03/06 05:18:14;;;;;;;2.80;1.40;;;;;;;-0.02;76.98;102650.94;4991121;28;20189;-46
2022/03/06 05:20:40;;;;;;;1.88;1.55;;;;;;;0.02;76.83;102644.00;4991036;28;20632;-46
2022/03/06 05:23:06;;;;;;;2.35;1.50;;;;;;;0.03;76.53;102648.47;4990698;28;20193;-45
2022/03/06 05:25:31;;;;;;;1.45;1.30;;;;;;;0.00;77.07;102638.72;4991567;28;20170;-44
2022/03/06 05:27:57;;;;;;;3.95;2.10;;;;;;;0.05;76.73;102638.88;4990609;28;20173;-45
2022/03/06 05:30:22;;;;;;;2.20;1.42;;;;;;;0.14;76.26;102641.81;4991053;28;20184;-46
2022/03/06 05:32:48;;;;;;;2.30;1.38;;;;;;;0.08;76.33;102637.22;4990436;28;20280;-45
2022/03/06 05:35:13;;;;;;;2.60;1.58;;;;;;;0.07;75.96;102650.38;4990868;28;20169;-46
2022/03/06 05:37:39;;;;;;;1.73;1.52;;;;;;;0.16;76.83;102638.38;4991077;28;20223;-45
2022/03/06 05:40:06;;;;;;;3.17;1.70;;;;;;;0.09;76.64;102638.09;4990727;28;20177;-47
2022/03/06 05:42:31;;;;;;;5.43;1.55;;;;;;;0.06;76.77;102631.00;4990255;28;20229;-46
2022/03/06 05:44:56;;;;;;;3.42;1.67;;;;;;;-0.07;77.08;102632.31;4990525;28;20223;-45
2022/03/06 05:47:22;;;;;;;3.67;1.90;;;;;;;-0.09;77.23;102627.84;4990648;28;20181;-47
2022/03/06 05:49:47;;;;;;;1.75;1.65;;;;;;;-0.18;78.34;102628.41;5005385;28;20179;-46
2022/03/06 05:52:13;;;;;;;1.58;1.45;;;;;;;-0.25;78.07;102632.56;4989728;28;20223;-49
2022/03/06 05:54:38;;;;;;;2.47;1.70;;;;;;;-0.29;77.90;102633.31;4990328;28;20166;-44
2022/03/06 05:57:04;;;;;;;1.85;1.75;;;;;;;-0.27;78.13;102633.38;4990472;28;20185;-46
2022/03/06 05:59:30;;;;;;;2.75;2.03;;;;;;;-0.29;77.92;102646.47;4990142;28;20170;-45
2022/03/06 06:01:55;;;;;;;3.17;1.67;;;;;;;-0.44;78.70;102646.84;4989776;28;20320;-47
2022/03/06 06:04:21;;;;;;;2.88;1.90;;;;;;;-0.49;78.55;102655.41;4990181;28;20175;-48
2022/03/06 06:06:46;;;;;;;3.80;1.75;;;;;;;-0.46;79.87;102655.50;5004921;28;20280;-48
2022/03/06 06:09:12;;;;;;;4.93;1.80;;;;;;;-0.39;79.37;102656.63;4990351;28;20700;-46
2022/03/06 06:11:37;;;;;;;2.00;1.70;;;;;;;-0.44;80.18;102667.91;4989754;28;20672;-48
2022/03/06 06:14:03;;;;;;;2.30;1.50;;;;;;;-0.46;80.09;102664.31;4989749;28;20234;-46
2022/03/06 06:16:29;;;;;;;2.85;1.70;;;;;;;-0.49;80.86;102660.66;4990280;28;20837;-45
2022/03/06 06:18:55;;;;;;;2.17;1.50;;;;;;;-0.42;80.59;102671.50;4989824;28;20679;-47
2022/03/06 06:21:20;;;;;;;2.80;1.63;;;;;;;-0.37;81.07;102674.28;4990564;28;20182;-48
2022/03/06 06:23:46;;;;;;;2.85;1.80;;;;;;;-0.40;80.72;102668.00;4993776;28;20570;-49
2022/03/06 06:26:12;;;;;;;2.90;1.80;;;;;;;-0.28;80.86;102657.94;4993749;28;20174;-47
2022/03/06 06:28:37;;;;;;;3.33;1.70;;;;;;;-0.24;80.95;102659.78;4994300;28;20189;-46
2022/03/06 06:31:05;;;;;;;2.28;1.67;;;;;;;-0.19;81.00;102668.78;4993619;28;20176;-46
2022/03/06 06:33:31;;;;;;;4.78;2.00;;;;;;;-0.19;80.92;102674.06;4992984;28;20792;-47
2022/03/06 06:35:56;;;;;;;2.08;1.80;;;;;;;-0.24;81.36;102672.97;4994098;28;20170;-45
2022/03/06 06:38:22;;;;;;;2.45;1.73;;;;;;;-0.20;81.16;102672.25;4993504;28;20205;-46
2022/03/06 06:40:49;;;;;;;2.83;1.80;;;;;;;-0.06;81.52;102655.19;4993503;28;20205;-47
2022/03/06 06:43:15;;;;;;;2.75;1.88;;;;;;;-0.04;81.30;102658.78;4975334;28;20205;-49
2022/03/06 06:45:40;;;;;;;3.13;1.65;;;;;;;-0.26;81.68;102661.50;4993748;28;20177;-48
2022/03/06 06:48:06;;;;;;;4.07;1.98;;;;;;;-0.21;82.25;102673.09;4994921;28;20232;-44
2022/03/06 06:50:32;;;;;;;1.75;1.45;;;;;;;-0.10;81.73;102661.19;4990698;28;20212;-45
2022/03/06 06:52:58;;;;;;;3.22;1.70;;;;;;;-0.08;82.57;102661.25;4989844;28;20197;-45
2022/03/06 06:55:23;;;;;;;3.58;1.77;;;;;;;0.16;82.02;102671.75;4993346;28;20173;-44
2022/03/06 06:57:49;;;;;;;3.88;1.70;;;;;;;0.42;82.16;102675.28;4994122;28;20184;-45
2022/03/06 07:00:15;;;;;;;4.75;2.25;;;;;;;0.81;81.23;102680.94;4994019;28;20189;-42
2022/03/06 07:02:40;;;;;;;3.25;1.80;;;;;;;1.16;81.15;102670.59;4993376;28;20217;-41
2022/03/06 07:05:06;;;;;;;3.50;1.83;;;;;;;1.46;80.20;102677.59;4994028;28;20182;-49
2022/03/06 07:07:32;;;;;;;2.58;1.85;;;;;;;1.30;78.75;102667.47;4993749;28;20208;-48
2022/03/06 07:09:57;;;;;;;3.13;2.05;;;;;;;1.16;78.54;102665.31;4993668;28;20212;-47
2022/03/06 07:12:22;;;;;;;3.58;1.90;;;;;;;1.07;78.34;102667.63;4992822;28;20212;-46
2022/03/06 07:14:48;;;;;;;2.42;2.03;;;;;;;0.98;78.42;102670.00;4957451;28;20201;-48
2022/03/06 07:17:13;;;;;;;3.65;2.17;;;;;;;0.73;78.61;102676.28;4991840;28;20232;-46
2022/03/06 07:19:39;;;;;;;3.00;2.03;;;;;;;0.66;78.57;102677.81;4992845;28;20192;-48
2022/03/06 07:22:04;;;;;;;2.15;1.95;;;;;;;0.59;79.62;102678.44;4992747;28;20193;-48
2022/03/06 07:24:29;;;;;;;3.67;1.98;;;;;;;0.60;79.64;102677.63;4993379;28;20695;-46
2022/03/06 07:26:55;;;;;;;3.78;2.40;;;;;;;0.70;79.37;102676.16;4992676;28;20204;-47
2022/03/06 07:29:20;;;;;;;2.20;1.92;;;;;;;0.78;79.36;102691.38;4993174;28;20768;-48
2022/03/06 07:31:46;;;;;;;5.72;2.63;;;;;;;1.00;79.45;102685.03;4992550;28;20275;-46
2022/03/06 07:34:11;;;;;;;5.65;2.78;;;;;;;1.59;79.01;102682.38;4992905;28;20387;-49
2022/03/06 07:36:36;;;;;;;4.82;2.28;;;;;;;2.02;77.33;102680.94;4993200;28;20193;-48
2022/03/06 07:39:03;;;;;;;5.05;2.42;;;;;;;2.40;76.05;102683.69;4992602;28;20180;-47
2022/03/06 07:41:28;;;;;;;5.05;2.63;;;;;;;2.88;74.40;102667.19;4992787;28;20647;-49
2022/03/06 07:43:54;;;;;;;2.78;2.10;;;;;;;3.01;72.14;102673.66;4992408;28;20177;-49
2022/03/06 07:46:19;;;;;;;2.80;2.42;;;;;;;2.95;70.75;102664.69;4992987;28;20173;-46
2022/03/06 07:48:44;;;;;;;4.13;2.30;;;;;;;3.15;69.74;102671.34;4993007;28;20265;-48
2022/03/06 07:51:12;;;;;;;7.88;2.47;;;;;;;3.58;68.66;102661.63;4992489;28;20165;-49
2022/03/06 07:53:38;;;;;;;6.30;2.72;;;;;;;3.77;68.01;102668.22;4992201;28;20239;-48
2022/03/06 07:56:03;;;;;;;3.05;2.20;;;;;;;3.87;66.90;102669.25;4998028;28;20301;-46
2022/03/06 07:58:29;;;;;;;3.22;2.15;;;;;;;3.68;66.41;102683.94;4992239;28;20166;-48
2022/03/06 08:00:54;;;;;;;4.85;2.05;;;;;;;3.96;65.94;102665.88;4993523;28;20196;-48
2022/03/06 08:03:19;;;;;;;4.40;2.28;;;;;;;4.01;66.03;102661.59;4990467;28;20291;-47
2022/03/06 08:05:45;;;;;;;4.65;1.90;;;;;;;4.02;65.95;102666.91;4990771;28;20184;-46
2022/03/06 08:08:10;;;;;;;2.55;2.15;;;;;;;4.23;65.36;102666.41;4990854;28;20217;-49
2022/03/06 08:10:36;;;;;;;7.85;2.10;;;;;;;4.46;66.39;102663.25;4991098;28;20277;-48
2022/03/06 08:13:01;;;;;;;4.93;2.30;;;;;;;4.60;65.23;102668.78;4991119;28;20311;-47
2022/03/06 08:15:27;;;;;;;5.18;1.90;;;;;;;4.46;64.50;102664.16;4991710;28;20633;-45
2022/03/06 08:17:52;;;;;;;5.78;2.30;;;;;;;4.54;64.11;102673.13;4992216;28;20720;-48
2022/03/06 08:20:18;;;;;;;3.15;2.17;;;;;;;3.27;66.39;102673.38;4992427;28;20252;-47
2022/03/06 08:22:43;;;;;;;3.30;2.25;;;;;;;3.21;67.60;102682.06;5006530;28;20220;-43
2022/03/06 08:25:09;;;;;;;3.15;1.92;;;;;;;3.10;68.17;102675.63;4992473;28;20190;-47
2022/03/06 08:27:35;;;;;;;5.45;1.98;;;;;;;3.45;68.01;102675.50;4991894;28;20189;-46
2022/03/06 08:30:01;;;;;;;3.58;1.98;;;;;;;3.03;68.33;102689.59;4991942;28;20177;-45
2022/03/06 08:32:27;;;;;;;3.42;1.80;;;;;;;3.10;68.44;102680.94;4991692;28;20197;-47
2022/03/06 08:34:52;;;;;;;2.85;1.65;;;;;;;3.06;68.26;102685.28;4991958;28;20617;-44
2022/03/06 08:37:19;;;;;;;3.40;2.10;;;;;;;2.68;69.75;102687.00;4992228;28;20180;-46
2022/03/06 08:39:48;;;;;;;3.63;2.00;;;;;;;2.45;69.79;102689.13;4991475;28;20185;-43
2022/03/06 08:42:14;;;;;;;3.55;1.85;;;;;;;2.57;69.37;102685.88;4990745;28;20209;-46
2022/03/06 08:44:40;;;;;;;2.15;1.55;;;;;;;2.77;69.77;102678.41;4991423;28;20181;-45
2022/03/06 08:47:06;;;;;;;2.17;1.83;;;;;;;2.88;68.98;102691.03;4991845;28;20176;-46
2022/03/06 08:49:32;;;;;;;5.35;2.17;;;;;;;3.14;68.52;102689.84;4992018;28;20178;-47
2022/03/06 08:51:58;;;;;;;5.32;2.03;;;;;;;3.36;67.05;102689.44;4991263;28;20256;-46
2022/03/06 08:54:24;;;;;;;4.07;1.75;;;;;;;3.34;66.33;102692.94;4991535;28;20188;-44
2022/03/06 08:56:49;;;;;;;2.50;1.80;;;;;;;3.43;66.27;102693.13;4991503;28;20173;-45
2022/03/06 08:59:15;;;;;;;2.05;1.70;;;;;;;4.31;64.78;102693.09;4991507;28;20199;-46
2022/03/06 09:01:40;;;;;;;3.03;1.90;;;;;;;3.87;63.69;102695.78;4991788;28;20198;-44
2022/03/06 09:04:06;;;;;;;3.20;1.70;;;;;;;4.52;64.08;102692.53;4991879;28;20173;-42
2022/03/06 09:06:31;;;;;;;3.30;1.60;;;;;;;4.58;60.76;102681.16;4991853;28;20181;-44
2022/03/06 09:08:56;;;;;;;3.33;1.77;;;;;;;4.85;60.82;102691.28;4991958;28;20260;-41
2022/03/06 09:11:22;;;;;;;4.53;1.60;;;;;;;4.92;60.85;102687.88;4993058;28;20192;-42
2022/03/06 09:13:47;;;;;;;4.13;1.95;;;;;;;4.20;61.05;102684.00;4973951;28;20629;-43
2022/03/06 09:16:13;;;;;;;3.85;1.85;;;;;;;3.85;62.11;102681.63;4991876;28;20632;-41
2022/03/06 09:18:38;;;;;;;3.10;1.67;;;;;;;4.05;62.34;102682.00;4991634;28;20181;-45
2022/03/06 09:21:04;;;;;;;2.42;1.58;;;;;;;3.93;62.53;102685.28;4991517;28;20169;-44
2022/03/06 09:23:29;;;;;;;4.10;1.77;;;;;;;3.94;62.81;102686.22;4990557;28;20259;-40
2022/03/06 09:25:55;;;;;;;4.32;1.90;;;;;;;4.53;63.13;102689.94;4991374;28;20544;-42
2022/03/06 09:28:20;;;;;;;4.50;1.95;;;;;;;3.85;63.17;102692.22;4991747;28;20177;-45
2022/03/06 09:30:46;;;;;;;5.90;1.83;;;;;;;3.95;62.67;102680.91;4991232;28;20165;-40
2022/03/06 09:33:11;;;;;;;3.38;1.70;;;;;;;3.33;63.07;102707.06;4990996;28;20225;-40
2022/03/06 09:35:37;;;;;;;4.35;1.77;;;;;;;3.88;62.84;102702.88;4995653;28;20263;-44
2022/03/06 09:38:02;;;;;;;4.65;2.30;;;;;;;4.21;61.74;102684.06;4992406;28;20173;-43
2022/03/06 09:40:28;;;;;;;3.67;1.90;;;;;;;4.82;61.33;102686.84;4991185;28;20851;-41
2022/03/06 09:42:54;;;;;;;4.18;1.85;;;;;;;4.61;60.00;102690.03;4990255;28;20229;-41
2022/03/06 09:45:22;;;;;;;2.78;1.90;;;;;;;4.82;60.78;102684.19;4991864;28;20272;-42
2022/03/06 09:47:48;;;;;;;2.10;1.75;;;;;;;4.71;60.44;102675.16;4989388;28;20166;-42
2022/03/06 09:50:15;;;;;;;3.65;1.83;;;;;;;4.79;59.75;102686.81;4989678;28;20696;-45
2022/03/06 09:52:41;;;;;;;2.95;2.05;;;;;;;5.15;59.35;102685.56;4988062;28;20220;-44
2022/03/06 09:55:08;;;;;;;2.42;1.70;;;;;;;5.04;58.52;102689.81;4987571;28;20220;-44
2022/03/06 09:57:33;;;;;;;4.18;2.08;;;;;;;5.00;58.74;102688.00;4987858;28;20204;-45
2022/03/06 09:59:58;;;;;;;4.00;1.85;;;;;;;4.90;58.57;102687.84;4988109;28;20677;-44
2022/03/06 10:02:24;;;;;;;4.07;1.80;;;;;;;4.86;58.24;102685.13;4989262;28;20205;-43
2022/03/06 10:04:50;;;;;;;3.90;2.08;;;;;;;5.32;58.08;102689.34;4968700;28;20892;-44
2022/03/06 10:07:19;;;;;;;4.85;2.20;;;;;;;5.18;57.25;102679.38;4984698;28;20224;-47
2022/03/06 10:09:46;;;;;;;3.17;1.88;;;;;;;4.01;57.75;102683.69;4987726;28;20177;-44
2022/03/06 10:12:21;;;;;;;4.20;1.92;;;;;;;3.91;59.26;102676.41;4990901;28;20217;-43
2022/03/06 10:14:47;;;;;;;4.25;2.10;;;;;;;3.79;59.57;102681.50;4988813;28;20251;-42
2022/03/06 10:17:18;;;;;;;2.90;1.90;;;;;;;4.13;59.25;102685.66;4989208;28;20203;-42
2022/03/06 10:19:58;;;;;;;5.03;2.20;;;;;;;4.69;58.78;102687.50;4987979;28;20169;-45
2022/03/06 10:22:28;;;;;;;6.20;2.35;;;;;;;4.59;58.05;102694.47;4988210;28;20696;-45
2022/03/06 10:24:56;;;;;;;4.18;1.90;;;;;;;4.65;57.72;102688.34;4989196;28;20189;-41
2022/03/06 10:27:54;;;;;;;4.70;1.70;;;;;;;4.78;57.46;102690.31;4989675;28;20270;-46
2022/03/06 10:30:34;;;;;;;4.03;1.90;;;;;;;4.49;57.23;102688.09;4990162;28;20184;-42
2022/03/06 10:33:03;;;;;;;3.28;1.85;;;;;;;4.87;57.20;102695.75;4989953;28;20193;-41
2022/03/06 10:35:34;;;;;;;4.10;2.10;;;;;;;5.23;56.86;102691.88;4990768;28;20718;-45
2022/03/06 10:38:00;;;;;;;3.08;2.22;;;;;;;5.12;57.04;102681.09;4990423;28;20165;-43
2022/03/06 10:40:34;;;;;;;3.45;2.17;;;;;;;4.90;56.52;102693.16;4990314;28;20260;-42
2022/03/06 10:42:59;;;;;;;3.22;1.90;;;;;;;4.92;57.04;102680.81;4989678;28;20238;-43
2022/03/06 10:45:26;;;;;;;2.55;1.92;;;;;;;5.38;56.97;102680.56;5005479;28;20182;-45
2022/03/06 10:47:52;;;;;;;4.15;2.15;;;;;;;5.44;56.84;102677.06;4990591;28;20209;-43
2022/03/06 10:50:22;;;;;;;5.32;2.38;;;;;;;5.46;54.83;102680.66;4990176;28;20853;-43
2022/03/06 10:52:47;;;;;;;2.95;2.00;;;;;;;4.79;55.90;102683.22;4989590;28;20204;-45
2022/03/06 10:55:13;;;;;;;4.18;2.00;;;;;;;4.69;55.69;102691.06;4990144;28;20170;-43
2022/03/06 10:57:40;;;;;;;2.42;2.22;;;;;;;4.89;56.66;102686.06;4990481;28;20256;-42
2022/03/06 11:00:06;;;;;;;5.18;2.53;;;;;;;5.12;56.83;102690.84;4990573;28;20174;-44
2022/03/06 11:02:33;;;;;;;4.00;2.42;;;;;;;5.08;57.42;102689.00;4989973;28;20304;-42
2022/03/06 11:05:00;;;;;;;4.75;2.50;;;;;;;5.52;56.98;102686.03;4990547;28;20704;-42
2022/03/06 11:07:29;;;;;;;5.18;2.60;;;;;;;5.29;56.24;102684.00;4990964;28;20862;-41
2022/03/06 11:09:57;;;;;;;4.53;2.83;;;;;;;5.19;58.06;102692.69;4993850;28;20205;-44
2022/03/06 11:12:26;;;;;;;4.03;2.28;;;;;;;5.28;57.79;102679.53;4993311;28;20236;-42
2022/03/06 11:14:52;;;;;;;3.17;2.45;;;;;;;5.55;55.88;102681.66;4993777;28;20668;-48
2022/03/06 11:17:17;;;;;;;4.72;2.30;;;;;;;5.41;56.74;102685.03;4994031;28;20169;-43
2022/03/06 11:19:43;;;;;;;3.92;2.10;;;;;;;5.62;56.71;102673.75;4993971;28;20174;-41
2022/03/06 11:22:27;;;;;;;3.92;2.20;;;;;;;5.42;57.10;102674.38;4993321;28;20248;-43
2022/03/06 11:24:57;;;;;;;4.50;2.40;;;;;;;5.51;56.78;102674.53;4993732;28;20176;-46
2022/03/06 11:27:34;;;;;;;3.20;2.28;;;;;;;5.62;55.67;102664.03;4993189;28;20173;-47